ADDS METAR Data INFO
IDs: Format: Raw Decoded Include TAF

Data at: 0246 UTC 17 Jan 2018

KMWA 170235Z AUTO 32004KT 7SM -SN SCT026 OVC049 M12/M16 A3070 RMK AO2 T11251160
KMWA 170215Z AUTO 33003KT 7SM -SN SCT026 OVC049 M12/M16 A3069 RMK AO2 T11251161
KMWA 170155Z AUTO 00000KT 10SM -SN SCT026 OVC049 M12/M16 A3069 RMK AO2 T11251161
KMWA 170135Z AUTO 00000KT 10SM -SN OVC047 M12/M16 A3068 RMK AO2 T11251165
KMWA 170115Z AUTO 00000KT 7SM -SN OVC047 M12/M16 A3068 RMK AO2 T11251165
KMWA 170045Z 32008KT 10SM OVC047 M13/M17 A3068
KMWA 162345Z 32008KT 10SM -SN OVC039 M13/M17 A3068
KMWA 162245Z 32008KT 10SM -SN OVC039 M13/M17 A3067
KMWA 162145Z 31010KT 20SM OVC027 M13/M19 A3066
KMWA 162045Z 31010KT 20SM OVC034 M13/M19 A3065
KMWA 161945Z 31010KT 20SM OVC034 M13/M19 A3064
KMWA 161845Z 31010KT 20SM SCT034 M14/M20 A3065
KMWA 161745Z 31010KT 20SM FEW080 M14/M21 A3066
KMWA 161645Z 31012KT 20SM SKC M15/M21 A3068
KMWA 161545Z 30010KT 20SM SKC M16/M21 A3069
KMWA 161445Z 30010KT 20SM FEW150 M16/M22 A3068
KMWA 161345Z 31008KT 20SM FEW150 M17/M22 A3066
KMWA 161246Z 31008KT 20SM FEW150 M17/M22 A3066
KMWA 161235Z AUTO 00000KT 10SM CLR M17/M21 A3065 RMK AO2 T11681215
KMWA 161215Z AUTO 31003KT 10SM CLR M17/M21 A3065 RMK AO2 T11661214
KMWA 161155Z AUTO 30003KT 10SM CLR M16/M21 A3065 RMK AO2 70001 T11631211 11115 21164
KMWA 161135Z AUTO 28003KT 10SM CLR M16/M21 A3064 RMK AO2 T11621209
KMWA 161115Z AUTO 30003KT 10SM CLR M16/M21 A3064 RMK AO2 T11601207
KMWA 161055Z AUTO 27003KT 10SM CLR M16/M20 A3064 RMK AO2 T11581205
KMWA 161035Z AUTO 00000KT 10SM CLR M15/M20 A3063 RMK AO2 T11551205
KMWA 161015Z AUTO 00000KT 10SM CLR M15/M20 A3062 RMK AO2 T11521203
KMWA 160955Z AUTO 00000KT 10SM CLR M15/M20 A3062 RMK AO2 T11501201
KMWA 160935Z AUTO 31005KT 10SM CLR M14/M20 A3062 RMK AO2 T11451198
KMWA 160915Z AUTO 29004KT 10SM CLR M14/M19 A3062 RMK AO2 T11411195
KMWA 160855Z AUTO 32007KT 10SM CLR M14/M19 A3061 RMK AO2 T11361191
KMWA 160835Z AUTO 33005KT 10SM CLR M13/M19 A3061 RMK AO2 T11321192
KMWA 160815Z AUTO 31005KT 10SM SCT029 M13/M19 A3061 RMK AO2 T11301191
KMWA 160755Z AUTO 32007G14KT 280V340 10SM BKN029 M13/M19 A3061 RMK AO2 T11261191
KMWA 160735Z AUTO 32008KT 10SM SCT029 M12/M19 A3060 RMK AO2 T11231188
KMWA 160715Z AUTO 32005KT 10SM SCT120 M12/M19 A3059 RMK AO2 T11201186
KMWA 160655Z AUTO 31004KT 10SM SCT120 M12/M18 A3059 RMK AO2 T11201184
KMWA 160635Z AUTO 31005KT 10SM CLR M12/M18 A3058 RMK AO2 T11181185
KMWA 160615Z AUTO 31007G14KT 280V340 10SM CLR M12/M18 A3058 RMK AO2 T11161185
KMWA 160555Z AUTO 31005KT 10SM CLR M11/M18 A3058 RMK AO2 T11151182 11061 21115 410171115
KMWA 160535Z AUTO 30003KT 10SM SCT120 M11/M18 A3058 RMK AO2 T11151185
KMWA 160515Z AUTO 33007KT 10SM SCT120 M11/M18 A3057 RMK AO2 T11141185
KMWA 160455Z AUTO 32006KT 10SM CLR M11/M18 A3058 RMK AO2 T11111180
KMWA 160435Z AUTO 32006KT 10SM SCT120 M11/M18 A3057 RMK AO2 T11101177
KMWA 160415Z AUTO 31005KT 10SM BKN120 M11/M17 A3057 RMK AO2 T11091175
KMWA 160355Z AUTO 31007G14KT 10SM SCT038 BKN120 M11/M18 A3056 RMK AO2 T11071176
KMWA 160335Z AUTO 32010G14KT 10SM SCT036 BKN120 M10/M18 A3056 RMK AO2 T11051179
KMWA 160315Z AUTO 32005KT 10SM BKN036 OVC120 M10/M17 A3055 RMK AO2 T11001170
KMWA 160255Z AUTO 32008G15KT 290V350 10SM BKN036 OVC120 M10/M17 A3055 RMK AO2 T10961170
KMWA 160235Z AUTO 32010G14KT 10SM OVC036 M09/M17 A3054 RMK AO2 T10931166
KMWA 160215Z AUTO 32007G16KT 280V350 10SM OVC036 M09/M16 A3053 RMK AO2 T10881157
KMWA 160155Z AUTO 32006KT 10SM BKN038 OVC120 M09/M16 A3052 RMK AO2 T10871156
KMWA 160135Z AUTO 34007G18KT 10SM SCT038 BKN120 M08/M16 A3051 RMK AO2 T10851157
KMWA 160115Z AUTO 34010G16KT 10SM SCT038 OVC110 M08/M14 A3050 RMK AO2 T10801145
KMWA 160045Z 33010KT 10SM SCT038 OVC090 M07/M13 A3048
KMWA 152345Z 33010KT 10SM OVC090 M06/M13 A3045
KMWA 152245Z 33010KT 10SM OVC032 M05/M12 A3043
KMWA 152145Z 33010KT 10SM OVC024 M05/M12 A3041
KMWA 152045Z 33010KT 10SM OVC026 M05/M11 A3038
KMWA 151945Z 31010KT 10SM OVC022 M04/M08 A3035
KMWA 151845Z 34010KT 7SM OVC011 M04/M04 A3033
KMWA 151745Z 24009KT 4SM -SN BKN007 BKN013 OVC022 M02/M02 A3032
KMWA 151645Z 24009KT 1SM -SN BKN007 OVC014 M03/M03 A3034
KMWA 151545Z 22009KT 1/2SM -SN SCT011 BKN017 OVC035 M03/M03 A3032
KMWA 151532Z 23009KT 1SM -SN SCT013 BKN023 OVC037 M03/M03 A3032